sensor_id;sensor_type;location;lat;lon;timestamp;pressure;altitude;pressure_sealevel;temperature
67353;BMP180;54238;52.278;21.056;2023-02-01T00:01:11;99061.20;;;3.20
67353;BMP180;54238;52.278;21.056;2023-02-01T00:03:41;99050.80;;;3.20
67353;BMP180;54238;52.278;21.056;2023-02-01T00:06:08;99052.80;;;3.20
67353;BMP180;54238;52.278;21.056;2023-02-01T00:08:41;99041.40;;;3.30
67353;BMP180;54238;52.278;21.056;2023-02-01T00:11:12;99034.00;;;3.30
67353;BMP180;54238;52.278;21.056;2023-02-01T00:13:41;99037.00;;;3.30
67353;BMP180;54238;52.278;21.056;2023-02-01T00:16:23;99044.40;;;3.40
67353;BMP180;54238;52.278;21.056;2023-02-01T00:19:12;99042.20;;;3.40
67353;BMP180;54238;52.278;21.056;2023-02-01T00:21:44;99044.20;;;3.50
67353;BMP180;54238;52.278;21.056;2023-02-01T00:24:13;99055.60;;;3.50
67353;BMP180;54238;52.278;21.056;2023-02-01T00:26:45;99058.00;;;3.50
67353;BMP180;54238;52.278;21.056;2023-02-01T00:29:18;99052.80;;;3.56
67353;BMP180;54238;52.278;21.056;2023-02-01T00:31:53;99064.00;;;3.60
67353;BMP180;54238;52.278;21.056;2023-02-01T00:34:25;99050.00;;;3.60
67353;BMP180;54238;52.278;21.056;2023-02-01T00:36:57;99059.00;;;3.62
67353;BMP180;54238;52.278;21.056;2023-02-01T00:39:29;99063.40;;;3.70
67353;BMP180;54238;52.278;21.056;2023-02-01T00:42:01;99060.40;;;3.70
67353;BMP180;54238;52.278;21.056;2023-02-01T00:44:31;99061.20;;;3.70
67353;BMP180;54238;52.278;21.056;2023-02-01T00:47:03;99062.60;;;3.70
67353;BMP180;54238;52.278;21.056;2023-02-01T00:49:38;99076.80;;;3.70
67353;BMP180;54238;52.278;21.056;2023-02-01T00:52:05;99054.80;;;3.80
67353;BMP180;54238;52.278;21.056;2023-02-01T00:54:39;99081.60;;;3.80
67353;BMP180;54238;52.278;21.056;2023-02-01T00:57:12;99069.00;;;3.80
67353;BMP180;54238;52.278;21.056;2023-02-01T00:59:47;99068.20;;;3.90
67353;BMP180;54238;52.278;21.056;2023-02-01T01:02:16;99061.40;;;3.90
67353;BMP180;54238;52.278;21.056;2023-02-01T01:04:44;99073.80;;;3.90
67353;BMP180;54238;52.278;21.056;2023-02-01T01:07:14;99068.60;;;3.90
67353;BMP180;54238;52.278;21.056;2023-02-01T01:09:43;99055.40;;;3.90
67353;BMP180;54238;52.278;21.056;2023-02-01T01:12:13;99054.00;;;3.90
67353;BMP180;54238;52.278;21.056;2023-02-01T01:14:40;99063.60;;;3.90
67353;BMP180;54238;52.278;21.056;2023-02-01T01:17:10;99059.80;;;3.90
67353;BMP180;54238;52.278;21.056;2023-02-01T01:19:42;99070.40;;;3.80
67353;BMP180;54238;52.278;21.056;2023-02-01T01:22:09;99072.60;;;3.80
67353;BMP180;54238;52.278;21.056;2023-02-01T01:24:39;99070.20;;;3.80
67353;BMP180;54238;52.278;21.056;2023-02-01T01:27:06;99062.60;;;3.80
67353;BMP180;54238;52.278;21.056;2023-02-01T01:29:39;99084.80;;;3.78
67353;BMP180;54238;52.278;21.056;2023-02-01T01:32:06;99090.00;;;3.70
67353;BMP180;54238;52.278;21.056;2023-02-01T01:34:33;99098.00;;;3.70
67353;BMP180;54238;52.278;21.056;2023-02-01T01:37:02;99106.40;;;3.70
67353;BMP180;54238;52.278;21.056;2023-02-01T01:39:31;99104.60;;;3.70
67353;BMP180;54238;52.278;21.056;2023-02-01T01:41:58;99098.20;;;3.70
67353;BMP180;54238;52.278;21.056;2023-02-01T01:45:05;99101.60;;;3.70
67353;BMP180;54238;52.278;21.056;2023-02-01T01:47:45;99110.40;;;3.70
67353;BMP180;54238;52.278;21.056;2023-02-01T01:50:20;99100.40;;;3.70
67353;BMP180;54238;52.278;21.056;2023-02-01T01:52:53;99098.00;;;3.60
67353;BMP180;54238;52.278;21.056;2023-02-01T01:55:29;99099.00;;;3.60
67353;BMP180;54238;52.278;21.056;2023-02-01T01:58:22;99107.00;;;3.60
67353;BMP180;54238;52.278;21.056;2023-02-01T02:00:54;99107.40;;;3.60
67353;BMP180;54238;52.278;21.056;2023-02-01T02:03:33;99106.60;;;3.60
67353;BMP180;54238;52.278;21.056;2023-02-01T02:06:19;99119.60;;;3.60
67353;BMP180;54238;52.278;21.056;2023-02-01T02:08:51;99114.80;;;3.60
67353;BMP180;54238;52.278;21.056;2023-02-01T02:11:18;99103.20;;;3.60
67353;BMP180;54238;52.278;21.056;2023-02-01T02:13:52;99108.60;;;3.60
67353;BMP180;54238;52.278;21.056;2023-02-01T02:32:27;99109.20;;;3.60
67353;BMP180;54238;52.278;21.056;2023-02-01T02:50:19;99132.40;;;3.60
67353;BMP180;54238;52.278;21.056;2023-02-01T02:53:15;99140.60;;;3.60
67353;BMP180;54238;52.278;21.056;2023-02-01T02:56:06;99145.40;;;3.60
67353;BMP180;54238;52.278;21.056;2023-02-01T02:58:55;99143.80;;;3.60
67353;BMP180;54238;52.278;21.056;2023-02-01T03:01:43;99142.00;;;3.60
67353;BMP180;54238;52.278;21.056;2023-02-01T03:04:34;99152.00;;;3.60
67353;BMP180;54238;52.278;21.056;2023-02-01T03:07:49;99145.60;;;3.60
67353;BMP180;54238;52.278;21.056;2023-02-01T03:10:56;99155.80;;;3.62
67353;BMP180;54238;52.278;21.056;2023-02-01T03:13:35;99146.80;;;3.60
67353;BMP180;54238;52.278;21.056;2023-02-01T03:16:28;99149.60;;;3.60
67353;BMP180;54238;52.278;21.056;2023-02-01T03:19:24;99142.80;;;3.60
67353;BMP180;54238;52.278;21.056;2023-02-01T03:22:23;99151.60;;;3.60
67353;BMP180;54238;52.278;21.056;2023-02-01T03:24:55;99146.20;;;3.60
67353;BMP180;54238;52.278;21.056;2023-02-01T03:27:32;99147.40;;;3.60
67353;BMP180;54238;52.278;21.056;2023-02-01T03:32:39;99149.40;;;3.50
67353;BMP180;54238;52.278;21.056;2023-02-01T03:35:33;99158.60;;;3.52
67353;BMP180;54238;52.278;21.056;2023-02-01T03:40:42;99163.60;;;3.50
67353;BMP180;54238;52.278;21.056;2023-02-01T03:43:17;99155.60;;;3.50
67353;BMP180;54238;52.278;21.056;2023-02-01T03:45:56;99148.60;;;3.40
67353;BMP180;54238;52.278;21.056;2023-02-01T03:48:29;99151.20;;;3.40
67353;BMP180;54238;52.278;21.056;2023-02-01T03:51:05;99154.60;;;3.30
67353;BMP180;54238;52.278;21.056;2023-02-01T03:53:38;99157.00;;;3.30
67353;BMP180;54238;52.278;21.056;2023-02-01T03:56:11;99155.40;;;3.30
67353;BMP180;54238;52.278;21.056;2023-02-01T03:58:41;99154.60;;;3.26
67353;BMP180;54238;52.278;21.056;2023-02-01T04:01:10;99155.80;;;3.20
67353;BMP180;54238;52.278;21.056;2023-02-01T04:03:42;99162.80;;;3.20
67353;BMP180;54238;52.278;21.056;2023-02-01T04:06:09;99174.00;;;3.20
67353;BMP180;54238;52.278;21.056;2023-02-01T04:08:44;99161.60;;;3.20
67353;BMP180;54238;52.278;21.056;2023-02-01T04:11:16;99158.20;;;3.20
67353;BMP180;54238;52.278;21.056;2023-02-01T04:13:45;99160.00;;;3.20
67353;BMP180;54238;52.278;21.056;2023-02-01T04:16:20;99156.00;;;3.12
67353;BMP180;54238;52.278;21.056;2023-02-01T04:18:59;99161.60;;;3.10
67353;BMP180;54238;52.278;21.056;2023-02-01T04:21:29;99155.00;;;3.10
67353;BMP180;54238;52.278;21.056;2023-02-01T04:23:56;99167.40;;;3.18
67353;BMP180;54238;52.278;21.056;2023-02-01T04:26:25;99161.20;;;3.20
67353;BMP180;54238;52.278;21.056;2023-02-01T04:28:57;99163.80;;;3.20
67353;BMP180;54238;52.278;21.056;2023-02-01T04:31:27;99154.60;;;3.26
67353;BMP180;54238;52.278;21.056;2023-02-01T04:33:59;99154.60;;;3.30
67353;BMP180;54238;52.278;21.056;2023-02-01T04:36:29;99159.60;;;3.30
67353;BMP180;54238;52.278;21.056;2023-02-01T04:39:00;99160.60;;;3.30
67353;BMP180;54238;52.278;21.056;2023-02-01T04:41:27;99172.20;;;3.30
67353;BMP180;54238;52.278;21.056;2023-02-01T04:43:59;99175.00;;;3.36
67353;BMP180;54238;52.278;21.056;2023-02-01T04:46:29;99167.40;;;3.38
67353;BMP180;54238;52.278;21.056;2023-02-01T04:48:59;99173.40;;;3.40
67353;BMP180;54238;52.278;21.056;2023-02-01T04:51:28;99180.40;;;3.40
67353;BMP180;54238;52.278;21.056;2023-02-01T04:54:00;99185.40;;;3.40
67353;BMP180;54238;52.278;21.056;2023-02-01T04:56:29;99187.60;;;3.50
67353;BMP180;54238;52.278;21.056;2023-02-01T04:58:56;99181.00;;;3.50
67353;BMP180;54238;52.278;21.056;2023-02-01T05:01:26;99191.20;;;3.50
67353;BMP180;54238;52.278;21.056;2023-02-01T05:03:53;99184.80;;;3.50
67353;BMP180;54238;52.278;21.056;2023-02-01T05:06:23;99200.20;;;3.50
67353;BMP180;54238;52.278;21.056;2023-02-01T05:08:50;99204.00;;;3.50
67353;BMP180;54238;52.278;21.056;2023-02-01T05:11:23;99199.60;;;3.50
67353;BMP180;54238;52.278;21.056;2023-02-01T05:14:11;99196.80;;;3.50
67353;BMP180;54238;52.278;21.056;2023-02-01T05:16:39;99207.80;;;3.50
67353;BMP180;54238;52.278;21.056;2023-02-01T05:19:15;99185.40;;;3.50
67353;BMP180;54238;52.278;21.056;2023-02-01T05:21:42;99199.20;;;3.50
67353;BMP180;54238;52.278;21.056;2023-02-01T05:24:12;99208.40;;;3.50
67353;BMP180;54238;52.278;21.056;2023-02-01T05:26:53;99198.40;;;3.50
67353;BMP180;54238;52.278;21.056;2023-02-01T05:29:20;99191.20;;;3.50
67353;BMP180;54238;52.278;21.056;2023-02-01T05:31:51;99192.80;;;3.52
67353;BMP180;54238;52.278;21.056;2023-02-01T05:34:18;99187.80;;;3.54
67353;BMP180;54238;52.278;21.056;2023-02-01T05:36:50;99196.20;;;3.56
67353;BMP180;54238;52.278;21.056;2023-02-01T05:39:19;99195.20;;;3.54
67353;BMP180;54238;52.278;21.056;2023-02-01T05:41:48;99186.80;;;3.56
67353;BMP180;54238;52.278;21.056;2023-02-01T05:44:18;99192.20;;;3.60
67353;BMP180;54238;52.278;21.056;2023-02-01T05:46:50;99192.20;;;3.60
67353;BMP180;54238;52.278;21.056;2023-02-01T05:49:19;99177.20;;;3.60
67353;BMP180;54238;52.278;21.056;2023-02-01T05:51:48;99183.60;;;3.58
67353;BMP180;54238;52.278;21.056;2023-02-01T05:54:22;99180.80;;;3.52
67353;BMP180;54238;52.278;21.056;2023-02-01T05:56:52;99186.80;;;3.60
67353;BMP180;54238;52.278;21.056;2023-02-01T05:59:22;99187.20;;;3.60
67353;BMP180;54238;52.278;21.056;2023-02-01T06:01:53;99183.60;;;3.60
67353;BMP180;54238;52.278;21.056;2023-02-01T06:04:23;99195.20;;;3.60
67353;BMP180;54238;52.278;21.056;2023-02-01T06:06:55;99190.60;;;3.60
67353;BMP180;54238;52.278;21.056;2023-02-01T06:09:24;99188.40;;;3.60
67353;BMP180;54238;52.278;21.056;2023-02-01T06:11:51;99176.20;;;3.60
67353;BMP180;54238;52.278;21.056;2023-02-01T06:14:22;99186.00;;;3.60
67353;BMP180;54238;52.278;21.056;2023-02-01T06:16:56;99180.80;;;3.60
67353;BMP180;54238;52.278;21.056;2023-02-01T06:19:23;99182.80;;;3.60
67353;BMP180;54238;52.278;21.056;2023-02-01T06:21:53;99178.40;;;3.60
67353;BMP180;54238;52.278;21.056;2023-02-01T06:24:21;99171.00;;;3.60
67353;BMP180;54238;52.278;21.056;2023-02-01T06:26:48;99171.00;;;3.60
67353;BMP180;54238;52.278;21.056;2023-02-01T06:29:15;99170.00;;;3.60
67353;BMP180;54238;52.278;21.056;2023-02-01T06:31:47;99163.40;;;3.60
67353;BMP180;54238;52.278;21.056;2023-02-01T06:34:17;99178.60;;;3.60
67353;BMP180;54238;52.278;21.056;2023-02-01T06:36:49;99175.00;;;3.60
67353;BMP180;54238;52.278;21.056;2023-02-01T06:39:18;99176.60;;;3.60
67353;BMP180;54238;52.278;21.056;2023-02-01T06:41:47;99167.40;;;3.60
67353;BMP180;54238;52.278;21.056;2023-02-01T06:44:15;99167.80;;;3.60
67353;BMP180;54238;52.278;21.056;2023-02-01T06:46:42;99172.60;;;3.60
67353;BMP180;54238;52.278;21.056;2023-02-01T06:49:12;99187.40;;;3.60
67353;BMP180;54238;52.278;21.056;2023-02-01T06:51:40;99187.20;;;3.68
67353;BMP180;54238;52.278;21.056;2023-02-01T06:54:09;99184.80;;;3.66
67353;BMP180;54238;52.278;21.056;2023-02-01T06:56:37;99189.80;;;3.70
67353;BMP180;54238;52.278;21.056;2023-02-01T06:59:07;99172.80;;;3.70
67353;BMP180;54238;52.278;21.056;2023-02-01T07:01:37;99182.00;;;3.68
67353;BMP180;54238;52.278;21.056;2023-02-01T07:04:04;99187.00;;;3.70
67353;BMP180;54238;52.278;21.056;2023-02-01T07:06:33;99183.60;;;3.70
67353;BMP180;54238;52.278;21.056;2023-02-01T07:09:05;99191.80;;;3.70
67353;BMP180;54238;52.278;21.056;2023-02-01T07:11:33;99193.60;;;3.70
67353;BMP180;54238;52.278;21.056;2023-02-01T07:14:02;99182.00;;;3.68
67353;BMP180;54238;52.278;21.056;2023-02-01T07:16:30;99187.40;;;3.70
67353;BMP180;54238;52.278;21.056;2023-02-01T07:18:57;99177.00;;;3.70
67353;BMP180;54238;52.278;21.056;2023-02-01T07:21:28;99193.80;;;3.66
67353;BMP180;54238;52.278;21.056;2023-02-01T07:24:00;99181.20;;;3.64
67353;BMP180;54238;52.278;21.056;2023-02-01T07:26:30;99175.20;;;3.60
67353;BMP180;54238;52.278;21.056;2023-02-01T07:28:59;99178.40;;;3.60
67353;BMP180;54238;52.278;21.056;2023-02-01T07:31:31;99175.40;;;3.60
67353;BMP180;54238;52.278;21.056;2023-02-01T07:34:01;99192.40;;;3.66
67353;BMP180;54238;52.278;21.056;2023-02-01T07:36:29;99190.80;;;3.70
67353;BMP180;54238;52.278;21.056;2023-02-01T07:38:57;99188.40;;;3.70
67353;BMP180;54238;52.278;21.056;2023-02-01T07:41:30;99189.80;;;3.70
67353;BMP180;54238;52.278;21.056;2023-02-01T07:43:59;99193.40;;;3.70
67353;BMP180;54238;52.278;21.056;2023-02-01T07:46:29;99207.20;;;3.70
67353;BMP180;54238;52.278;21.056;2023-02-01T07:49:00;99199.40;;;3.70
67353;BMP180;54238;52.278;21.056;2023-02-01T07:51:27;99195.40;;;3.70
67353;BMP180;54238;52.278;21.056;2023-02-01T07:53:54;99186.80;;;3.70
67353;BMP180;54238;52.278;21.056;2023-02-01T07:56:24;99186.40;;;3.70
67353;BMP180;54238;52.278;21.056;2023-02-01T07:58:54;99189.60;;;3.70
67353;BMP180;54238;52.278;21.056;2023-02-01T08:01:28;99188.40;;;3.70
67353;BMP180;54238;52.278;21.056;2023-02-01T08:04:00;99187.80;;;3.70
67353;BMP180;54238;52.278;21.056;2023-02-01T08:06:33;99191.60;;;3.70
67353;BMP180;54238;52.278;21.056;2023-02-01T08:09:07;99192.60;;;3.60
67353;BMP180;54238;52.278;21.056;2023-02-01T08:11:39;99187.00;;;3.70
67353;BMP180;54238;52.278;21.056;2023-02-01T08:14:06;99180.60;;;3.70
67353;BMP180;54238;52.278;21.056;2023-02-01T08:16:36;99185.40;;;3.68
67353;BMP180;54238;52.278;21.056;2023-02-01T08:19:04;99176.20;;;3.70
67353;BMP180;54238;52.278;21.056;2023-02-01T08:21:34;99173.60;;;3.70
67353;BMP180;54238;52.278;21.056;2023-02-01T08:24:10;99190.20;;;3.70
67353;BMP180;54238;52.278;21.056;2023-02-01T08:26:38;99195.60;;;3.74
67353;BMP180;54238;52.278;21.056;2023-02-01T08:29:08;99181.40;;;3.80
67353;BMP180;54238;52.278;21.056;2023-02-01T08:31:37;99181.40;;;3.80
67353;BMP180;54238;52.278;21.056;2023-02-01T08:34:08;99191.00;;;3.90
67353;BMP180;54238;52.278;21.056;2023-02-01T08:36:41;99192.60;;;3.90
67353;BMP180;54238;52.278;21.056;2023-02-01T08:39:10;99172.80;;;3.90
67353;BMP180;54238;52.278;21.056;2023-02-01T08:41:40;99174.20;;;3.90
67353;BMP180;54238;52.278;21.056;2023-02-01T08:44:27;99175.60;;;3.90
67353;BMP180;54238;52.278;21.056;2023-02-01T08:46:57;99179.20;;;3.90
67353;BMP180;54238;52.278;21.056;2023-02-01T08:49:24;99190.80;;;4.00
67353;BMP180;54238;52.278;21.056;2023-02-01T08:51:53;99194.00;;;4.00
67353;BMP180;54238;52.278;21.056;2023-02-01T08:54:25;99198.40;;;3.90
67353;BMP180;54238;52.278;21.056;2023-02-01T08:56:55;99186.60;;;3.90
67353;BMP180;54238;52.278;21.056;2023-02-01T08:59:24;99191.40;;;3.86
67353;BMP180;54238;52.278;21.056;2023-02-01T09:01:51;99183.80;;;3.80
67353;BMP180;54238;52.278;21.056;2023-02-01T09:04:23;99190.00;;;3.80
67353;BMP180;54238;52.278;21.056;2023-02-01T09:06:51;99184.60;;;3.88
67353;BMP180;54238;52.278;21.056;2023-02-01T09:09:18;99192.40;;;3.90
67353;BMP180;54238;52.278;21.056;2023-02-01T09:11:49;99179.00;;;3.98
67353;BMP180;54238;52.278;21.056;2023-02-01T09:14:22;99186.80;;;4.00
67353;BMP180;54238;52.278;21.056;2023-02-01T09:16:51;99181.20;;;4.10
67353;BMP180;54238;52.278;21.056;2023-02-01T09:19:18;99186.80;;;4.10
67353;BMP180;54238;52.278;21.056;2023-02-01T09:21:45;99194.80;;;4.14
67353;BMP180;54238;52.278;21.056;2023-02-01T09:24:17;99179.20;;;4.20
67353;BMP180;54238;52.278;21.056;2023-02-01T09:26:46;99201.80;;;4.20
67353;BMP180;54238;52.278;21.056;2023-02-01T09:29:18;99188.60;;;4.30
67353;BMP180;54238;52.278;21.056;2023-02-01T09:31:47;99175.80;;;4.30
67353;BMP180;54238;52.278;21.056;2023-02-01T09:34:17;99182.60;;;4.38
67353;BMP180;54238;52.278;21.056;2023-02-01T09:36:46;99165.80;;;4.40
67353;BMP180;54238;52.278;21.056;2023-02-01T09:39:20;99168.00;;;4.48
67353;BMP180;54238;52.278;21.056;2023-02-01T09:42:02;99157.80;;;4.50
67353;BMP180;54238;52.278;21.056;2023-02-01T09:45:20;99156.40;;;4.60
67353;BMP180;54238;52.278;21.056;2023-02-01T09:48:02;99159.20;;;4.70
67353;BMP180;54238;52.278;21.056;2023-02-01T09:50:41;99161.60;;;4.80
67353;BMP180;54238;52.278;21.056;2023-02-01T09:56:06;99170.20;;;4.98
67353;BMP180;54238;52.278;21.056;2023-02-01T09:58:42;99187.80;;;5.00
67353;BMP180;54238;52.278;21.056;2023-02-01T10:01:28;99171.00;;;5.00
67353;BMP180;54238;52.278;21.056;2023-02-01T10:04:09;99185.00;;;4.92
67353;BMP180;54238;52.278;21.056;2023-02-01T10:10:10;99171.00;;;4.90
67353;BMP180;54238;52.278;21.056;2023-02-01T10:21:35;99177.00;;;4.90
67353;BMP180;54238;52.278;21.056;2023-02-01T10:24:41;99190.60;;;4.90
67353;BMP180;54238;52.278;21.056;2023-02-01T10:36:01;99172.20;;;4.90
67353;BMP180;54238;52.278;21.056;2023-02-01T10:38:33;99180.20;;;4.90
67353;BMP180;54238;52.278;21.056;2023-02-01T10:41:20;99178.00;;;4.90
67353;BMP180;54238;52.278;21.056;2023-02-01T10:43:54;99182.40;;;4.90
67353;BMP180;54238;52.278;21.056;2023-02-01T10:46:24;99173.20;;;4.90
67353;BMP180;54238;52.278;21.056;2023-02-01T10:49:00;99177.80;;;4.90
67353;BMP180;54238;52.278;21.056;2023-02-01T10:51:45;99179.60;;;4.90
67353;BMP180;54238;52.278;21.056;2023-02-01T10:54:22;99181.00;;;4.92
67353;BMP180;54238;52.278;21.056;2023-02-01T10:57:00;99172.20;;;5.00
67353;BMP180;54238;52.278;21.056;2023-02-01T10:59:29;99166.60;;;5.10
67353;BMP180;54238;52.278;21.056;2023-02-01T11:02:35;99205.20;;;5.22
67353;BMP180;54238;52.278;21.056;2023-02-01T11:05:07;99172.80;;;5.40
67353;BMP180;54238;52.278;21.056;2023-02-01T11:07:50;99173.60;;;5.50
67353;BMP180;54238;52.278;21.056;2023-02-01T11:10:42;99172.80;;;5.50
67353;BMP180;54238;52.278;21.056;2023-02-01T11:13:18;99184.20;;;5.58
67353;BMP180;54238;52.278;21.056;2023-02-01T11:15:58;99174.40;;;5.60
67353;BMP180;54238;52.278;21.056;2023-02-01T11:18:33;99166.00;;;5.50
67353;BMP180;54238;52.278;21.056;2023-02-01T11:21:09;99164.80;;;5.42
67353;BMP180;54238;52.278;21.056;2023-02-01T11:23:46;99164.00;;;5.40
67353;BMP180;54238;52.278;21.056;2023-02-01T11:29:15;99162.60;;;5.40
67353;BMP180;54238;52.278;21.056;2023-02-01T11:31:45;99164.00;;;5.30
67353;BMP180;54238;52.278;21.056;2023-02-01T11:37:01;99150.40;;;5.28
67353;BMP180;54238;52.278;21.056;2023-02-01T11:39:36;99150.60;;;5.20
67353;BMP180;54238;52.278;21.056;2023-02-01T11:42:31;99163.80;;;5.20
67353;BMP180;54238;52.278;21.056;2023-02-01T11:47:57;99159.00;;;5.30
67353;BMP180;54238;52.278;21.056;2023-02-01T11:59:37;99154.80;;;6.00
67353;BMP180;54238;52.278;21.056;2023-02-01T12:06:08;99146.20;;;5.90
67353;BMP180;54238;52.278;21.056;2023-02-01T12:08:31;99146.00;;;6.00
67353;BMP180;54238;52.278;21.056;2023-02-01T12:17:10;99150.80;;;5.70
67353;BMP180;54238;52.278;21.056;2023-02-01T12:23:07;99140.80;;;5.40
67353;BMP180;54238;52.278;21.056;2023-02-01T12:26:08;99127.60;;;5.32
67353;BMP180;54238;52.278;21.056;2023-02-01T12:38:11;99147.60;;;5.20
67353;BMP180;54238;52.278;21.056;2023-02-01T12:44:49;99140.00;;;5.20
67353;BMP180;54238;52.278;21.056;2023-02-01T12:47:39;99135.40;;;5.20
67353;BMP180;54238;52.278;21.056;2023-02-01T12:50:26;99140.60;;;5.20
67353;BMP180;54238;52.278;21.056;2023-02-01T12:53:06;99126.60;;;5.30
67353;BMP180;54238;52.278;21.056;2023-02-01T12:56:07;99139.20;;;5.32
67353;BMP180;54238;52.278;21.056;2023-02-01T12:58:50;99155.80;;;5.40
67353;BMP180;54238;52.278;21.056;2023-02-01T13:01:40;99139.40;;;5.40
67353;BMP180;54238;52.278;21.056;2023-02-01T13:04:33;99132.40;;;5.50
67353;BMP180;54238;52.278;21.056;2023-02-01T13:07:14;99128.20;;;5.50
67353;BMP180;54238;52.278;21.056;2023-02-01T13:09:59;99138.60;;;5.60
67353;BMP180;54238;52.278;21.056;2023-02-01T13:12:49;99134.60;;;5.70
67353;BMP180;54238;52.278;21.056;2023-02-01T13:15:38;99128.00;;;5.70
67353;BMP180;54238;52.278;21.056;2023-02-01T13:18:18;99132.00;;;5.70
67353;BMP180;54238;52.278;21.056;2023-02-01T13:21:35;99140.20;;;5.70
67353;BMP180;54238;52.278;21.056;2023-02-01T13:24:03;99137.60;;;5.60
67353;BMP180;54238;52.278;21.056;2023-02-01T13:26:30;99143.00;;;5.60
67353;BMP180;54238;52.278;21.056;2023-02-01T13:29:11;99137.80;;;5.60
67353;BMP180;54238;52.278;21.056;2023-02-01T13:35:08;99148.80;;;5.60
67353;BMP180;54238;52.278;21.056;2023-02-01T13:40:44;99151.60;;;5.56
67353;BMP180;54238;52.278;21.056;2023-02-01T13:43:28;99149.60;;;5.50
67353;BMP180;54238;52.278;21.056;2023-02-01T13:46:04;99155.00;;;5.50
67353;BMP180;54238;52.278;21.056;2023-02-01T13:48:55;99160.60;;;5.40
67353;BMP180;54238;52.278;21.056;2023-02-01T13:51:50;99172.40;;;5.40
67353;BMP180;54238;52.278;21.056;2023-02-01T13:56:59;99154.20;;;5.30
67353;BMP180;54238;52.278;21.056;2023-02-01T14:05:09;99152.00;;;5.14
67353;BMP180;54238;52.278;21.056;2023-02-01T14:13:33;99153.60;;;5.10
67353;BMP180;54238;52.278;21.056;2023-02-01T14:21:30;99153.40;;;5.00
67353;BMP180;54238;52.278;21.056;2023-02-01T14:24:23;99154.00;;;5.40
67353;BMP180;54238;52.278;21.056;2023-02-01T14:29:56;99152.60;;;5.60
67353;BMP180;54238;52.278;21.056;2023-02-01T14:32:36;99152.80;;;5.56
67353;BMP180;54238;52.278;21.056;2023-02-01T14:35:23;99151.00;;;5.40
67353;BMP180;54238;52.278;21.056;2023-02-01T14:38:01;99147.80;;;5.30
67353;BMP180;54238;52.278;21.056;2023-02-01T14:40:36;99171.20;;;5.20
67353;BMP180;54238;52.278;21.056;2023-02-01T14:43:03;99156.40;;;5.20
67353;BMP180;54238;52.278;21.056;2023-02-01T14:55:59;99158.00;;;5.10
67353;BMP180;54238;52.278;21.056;2023-02-01T14:59:00;99162.20;;;5.10
67353;BMP180;54238;52.278;21.056;2023-02-01T15:01:46;99151.20;;;5.10
67353;BMP180;54238;52.278;21.056;2023-02-01T15:04:44;99145.00;;;5.10
67353;BMP180;54238;52.278;21.056;2023-02-01T15:07:13;99146.00;;;5.10
67353;BMP180;54238;52.278;21.056;2023-02-01T15:09:47;99149.40;;;5.10
67353;BMP180;54238;52.278;21.056;2023-02-01T15:12:26;99154.00;;;5.10
67353;BMP180;54238;52.278;21.056;2023-02-01T15:17:57;99154.20;;;5.10
67353;BMP180;54238;52.278;21.056;2023-02-01T15:20:31;99150.80;;;5.10
67353;BMP180;54238;52.278;21.056;2023-02-01T15:23:14;99170.40;;;5.04
67353;BMP180;54238;52.278;21.056;2023-02-01T15:25:47;99166.40;;;5.00
67353;BMP180;54238;52.278;21.056;2023-02-01T15:28:21;99164.00;;;5.00
67353;BMP180;54238;52.278;21.056;2023-02-01T15:31:01;99153.60;;;5.00
67353;BMP180;54238;52.278;21.056;2023-02-01T15:33:30;99163.00;;;5.00
67353;BMP180;54238;52.278;21.056;2023-02-01T15:36:10;99162.80;;;4.96
67353;BMP180;54238;52.278;21.056;2023-02-01T15:38:44;99169.60;;;4.90
67353;BMP180;54238;52.278;21.056;2023-02-01T15:41:31;99156.20;;;4.92
67353;BMP180;54238;52.278;21.056;2023-02-01T15:46:38;99173.60;;;4.90
67353;BMP180;54238;52.278;21.056;2023-02-01T15:51:54;99162.80;;;4.90
67353;BMP180;54238;52.278;21.056;2023-02-01T15:54:58;99184.80;;;4.90
67353;BMP180;54238;52.278;21.056;2023-02-01T15:57:36;99159.60;;;4.90
67353;BMP180;54238;52.278;21.056;2023-02-01T16:00:18;99170.00;;;4.90
67353;BMP180;54238;52.278;21.056;2023-02-01T16:03:02;99162.20;;;4.90
67353;BMP180;54238;52.278;21.056;2023-02-01T16:05:38;99174.80;;;4.90
67353;BMP180;54238;52.278;21.056;2023-02-01T16:08:23;99169.20;;;4.82
67353;BMP180;54238;52.278;21.056;2023-02-01T16:10:54;99164.20;;;4.80
67353;BMP180;54238;52.278;21.056;2023-02-01T16:13:21;99167.80;;;4.80
67353;BMP180;54238;52.278;21.056;2023-02-01T16:15:51;99171.00;;;4.70
67353;BMP180;54238;52.278;21.056;2023-02-01T16:18:20;99173.80;;;4.70
67353;BMP180;54238;52.278;21.056;2023-02-01T16:20:52;99162.60;;;4.70
67353;BMP180;54238;52.278;21.056;2023-02-01T16:23:19;99165.20;;;4.70
67353;BMP180;54238;52.278;21.056;2023-02-01T16:25:47;99171.20;;;4.60
67353;BMP180;54238;52.278;21.056;2023-02-01T16:28:16;99172.80;;;4.60
67353;BMP180;54238;52.278;21.056;2023-02-01T16:30:46;99165.00;;;4.60
67353;BMP180;54238;52.278;21.056;2023-02-01T16:33:20;99172.80;;;4.60
67353;BMP180;54238;52.278;21.056;2023-02-01T16:35:50;99161.00;;;4.60
67353;BMP180;54238;52.278;21.056;2023-02-01T16:38:21;99159.60;;;4.50
67353;BMP180;54238;52.278;21.056;2023-02-01T16:41:00;99162.00;;;4.50
67353;BMP180;54238;52.278;21.056;2023-02-01T16:43:29;99178.40;;;4.50
67353;BMP180;54238;52.278;21.056;2023-02-01T16:46:16;99162.20;;;4.50
67353;BMP180;54238;52.278;21.056;2023-02-01T16:48:51;99168.80;;;4.50
67353;BMP180;54238;52.278;21.056;2023-02-01T16:51:21;99162.40;;;4.50
67353;BMP180;54238;52.278;21.056;2023-02-01T16:53:51;99157.40;;;4.50
67353;BMP180;54238;52.278;21.056;2023-02-01T16:56:31;99153.40;;;4.50
67353;BMP180;54238;52.278;21.056;2023-02-01T16:59:05;99153.40;;;4.40
67353;BMP180;54238;52.278;21.056;2023-02-01T17:01:32;99150.00;;;4.40
67353;BMP180;54238;52.278;21.056;2023-02-01T17:04:02;99148.60;;;4.40
67353;BMP180;54238;52.278;21.056;2023-02-01T17:06:31;99155.60;;;4.40
67353;BMP180;54238;52.278;21.056;2023-02-01T17:09:01;99151.60;;;4.40
67353;BMP180;54238;52.278;21.056;2023-02-01T17:11:32;99153.80;;;4.30
67353;BMP180;54238;52.278;21.056;2023-02-01T17:14:17;99166.40;;;4.30
67353;BMP180;54238;52.278;21.056;2023-02-01T17:16:49;99168.60;;;4.30
67353;BMP180;54238;52.278;21.056;2023-02-01T17:19:23;99177.40;;;4.32
67353;BMP180;54238;52.278;21.056;2023-02-01T17:21:56;99171.80;;;4.40
67353;BMP180;54238;52.278;21.056;2023-02-01T17:24:55;99167.40;;;4.36